createdAt,value
2016-07-29T00:00:12.520Z,0
2016-07-29T00:01:12.188Z,0
2016-07-29T00:02:11.515Z,0
2016-07-29T00:03:11.562Z,0
2016-07-29T00:04:10.902Z,0
2016-07-29T00:05:12.006Z,0
2016-07-29T00:06:12.397Z,0
2016-07-29T00:07:11.770Z,0
2016-07-29T00:08:12.738Z,0
2016-07-29T00:09:12.534Z,0
2016-07-29T00:10:12.626Z,0
2016-07-29T00:11:12.631Z,0
2016-07-29T00:12:12.659Z,0
2016-07-29T00:13:12.726Z,0
2016-07-29T00:14:12.798Z,0
2016-07-29T00:15:13.075Z,0
2016-07-29T00:16:12.897Z,0
2016-07-29T00:17:12.934Z,0
2016-07-29T00:18:12.952Z,0
2016-07-29T00:19:13.023Z,0
2016-07-29T00:20:12.493Z,0
2016-07-29T00:21:13.077Z,0
2016-07-29T00:22:12.481Z,0
2016-07-29T00:23:13.210Z,0
2016-07-29T00:24:12.550Z,0
2016-07-29T00:25:13.578Z,0
2016-07-29T00:26:13.349Z,0
2016-07-29T00:27:12.693Z,0
2016-07-29T00:28:13.453Z,0
2016-07-29T00:29:13.519Z,0
2016-07-29T00:30:14.679Z,0
2016-07-29T00:31:13.566Z,0
2016-07-29T00:33:13.642Z,0
2016-07-29T00:34:13.726Z,0
2016-07-29T00:35:14.027Z,0
2016-07-29T00:36:13.102Z,0
2016-07-29T00:37:13.906Z,0
2016-07-29T00:38:13.903Z,0
2016-07-29T00:39:13.265Z,0
2016-07-29T00:40:14.173Z,0
2016-07-29T00:41:14.066Z,0
2016-07-29T00:42:14.098Z,0
2016-07-29T00:43:14.175Z,0
2016-07-29T00:44:13.475Z,0
2016-07-29T00:45:14.602Z,0
2016-07-29T00:46:13.601Z,0
2016-07-29T00:47:14.320Z,0
2016-07-29T00:48:14.383Z,0
2016-07-29T00:49:14.411Z,0
2016-07-29T00:50:14.573Z,0
2016-07-29T00:51:14.510Z,0
2016-07-29T00:52:14.525Z,0
2016-07-29T00:53:14.611Z,0
2016-07-29T00:54:13.942Z,0
2016-07-29T00:55:14.407Z,0
2016-07-29T00:56:14.744Z,0
2016-07-29T00:57:14.083Z,0
2016-07-29T00:58:14.151Z,0
2016-07-29T00:59:14.892Z,0
2016-07-29T01:00:15.121Z,0
2016-07-29T01:01:15.001Z,0
2016-07-29T01:02:14.561Z,0
2016-07-29T01:03:15.097Z,0
2016-07-29T01:04:15.116Z,0
2016-07-29T01:05:14.726Z,0
2016-07-29T01:06:15.231Z,0
2016-07-29T01:07:13.874Z,0
2016-07-29T01:08:15.358Z,0
2016-07-29T01:09:14.654Z,0
2016-07-29T01:10:15.406Z,0
2016-07-29T01:11:15.463Z,0
2016-07-29T01:12:14.835Z,0
2016-07-29T01:13:14.854Z,0
2016-07-29T01:14:14.912Z,0
2016-07-29T01:15:14.934Z,0
2016-07-29T01:16:15.696Z,0
2016-07-29T01:17:15.267Z,0
2016-07-29T01:18:15.778Z,0
2016-07-29T01:19:15.154Z,0
2016-07-29T01:20:15.874Z,0
2016-07-29T01:21:15.254Z,0
2016-07-29T01:22:15.287Z,0
2016-07-29T01:23:15.330Z,0
2016-07-29T01:24:15.399Z,0
2016-07-29T01:25:15.410Z,0
2016-07-29T01:26:16.152Z,0
2016-07-29T01:27:15.520Z,0
2016-07-29T01:28:16.248Z,0
2016-07-29T01:29:16.296Z,0
2016-07-29T01:30:16.381Z,0
2016-07-29T01:31:16.359Z,0
2016-07-29T01:33:16.495Z,0
2016-07-29T01:34:15.849Z,0
2016-07-29T01:35:16.571Z,0
2016-07-29T01:36:15.939Z,0
2016-07-29T01:37:16.683Z,0
2016-07-29T01:38:16.725Z,0
2016-07-29T01:39:16.075Z,0
2016-07-29T01:40:16.111Z,0
2016-07-29T01:41:16.151Z,0
2016-07-29T01:42:16.202Z,0
2016-07-29T01:43:16.969Z,0
2016-07-29T01:44:16.265Z,0
2016-07-29T01:45:17.046Z,0
2016-07-29T01:46:16.414Z,0
2016-07-29T01:48:16.486Z,0
2016-07-29T01:49:16.535Z,0
2016-07-29T01:50:16.576Z,0
2016-07-29T01:51:31.568Z,0
2016-07-29T01:52:16.737Z,0
2016-07-29T01:53:17.452Z,0
2016-07-29T01:54:16.087Z,0
2016-07-29T01:55:17.533Z,0
2016-07-29T01:56:16.833Z,0
2016-07-29T01:57:16.217Z,0
2016-07-29T01:58:16.950Z,0
2016-07-29T01:59:17.691Z,0
2016-07-29T02:00:17.082Z,0
2016-07-29T02:01:17.135Z,0
2016-07-29T02:03:17.214Z,0
2016-07-29T02:04:17.261Z,0
2016-07-29T02:05:17.299Z,0
2016-07-29T02:06:18.022Z,0
2016-07-29T02:07:16.671Z,0
2016-07-29T02:08:18.162Z,0
2016-07-29T02:09:17.448Z,0
2016-07-29T02:10:17.527Z,0
2016-07-29T02:11:17.606Z,0
2016-07-29T02:12:18.318Z,0
2016-07-29T02:13:17.646Z,0
2016-07-29T02:14:17.708Z,0
2016-07-29T02:15:17.751Z,0
2016-07-29T02:16:17.814Z,0
2016-07-29T02:17:18.573Z,0
2016-07-29T02:18:17.191Z,0
2016-07-29T02:19:17.954Z,0
2016-07-29T02:20:17.974Z,0
2016-07-29T02:21:18.780Z,0
2016-07-29T02:22:18.798Z,0
2016-07-29T02:23:18.128Z,0
2016-07-29T02:24:17.486Z,0
2016-07-29T02:25:18.923Z,0
2016-07-29T02:26:18.276Z,0
2016-07-29T02:27:18.331Z,0
2016-07-29T02:28:19.042Z,0
2016-07-29T02:29:19.109Z,0
2016-07-29T02:30:18.479Z,0
2016-07-29T02:31:19.214Z,0
2016-07-29T02:33:19.555Z,0
2016-07-29T02:34:18.684Z,0
2016-07-29T02:35:18.728Z,0
2016-07-29T02:36:19.478Z,0
2016-07-29T02:37:18.795Z,0
2016-07-29T02:38:19.524Z,0
2016-07-29T02:39:19.609Z,0
2016-07-29T02:40:18.939Z,0
2016-07-29T02:41:19.696Z,0
2016-07-29T02:42:19.034Z,0
2016-07-29T02:43:19.750Z,0
2016-07-29T02:44:19.864Z,0
2016-07-29T02:45:20.087Z,0
2016-07-29T02:46:19.941Z,0
2016-07-29T02:47:19.287Z,0
2016-07-29T02:48:20.015Z,0
2016-07-29T02:49:20.052Z,0
2016-07-29T02:50:20.119Z,0
2016-07-29T02:51:19.455Z,0
2016-07-29T02:52:19.532Z,0
2016-07-29T02:53:19.576Z,0
2016-07-29T02:54:20.317Z,0
2016-07-29T02:55:20.369Z,0
2016-07-29T02:56:19.697Z,0
2016-07-29T02:57:19.737Z,0
2016-07-29T02:58:19.778Z,0
2016-07-29T02:59:19.824Z,0
2016-07-29T03:00:20.564Z,0
2016-07-29T03:01:20.607Z,0
2016-07-29T03:02:20.016Z,0
2016-07-29T03:03:20.715Z,0
2016-07-29T03:04:20.049Z,0
2016-07-29T03:05:20.096Z,0
2016-07-29T03:06:20.195Z,0
2016-07-29T03:07:20.903Z,0
2016-07-29T03:08:20.246Z,0
2016-07-29T03:09:20.990Z,0
2016-07-29T03:10:21.059Z,0
2016-07-29T03:11:21.062Z,0
2016-07-29T03:12:21.121Z,0
2016-07-29T03:13:21.191Z,0
2016-07-29T03:14:21.271Z,0
2016-07-29T03:15:21.251Z,0
2016-07-29T03:16:20.673Z,0
2016-07-29T03:17:19.973Z,0
2016-07-29T03:18:20.010Z,0
2016-07-29T03:19:20.796Z,0
2016-07-29T03:20:21.509Z,0
2016-07-29T03:21:21.595Z,0
2016-07-29T03:22:20.934Z,0
2016-07-29T03:23:20.945Z,0
2016-07-29T03:24:21.000Z,0
2016-07-29T03:25:21.782Z,0
2016-07-29T03:26:21.840Z,0
2016-07-29T03:27:21.840Z,0
2016-07-29T03:28:21.884Z,0
2016-07-29T03:29:21.918Z,0
2016-07-29T03:30:21.985Z,0
2016-07-29T03:31:22.033Z,0
2016-07-29T03:32:22.089Z,0
2016-07-29T03:33:22.446Z,0
2016-07-29T03:34:21.718Z,0
2016-07-29T03:35:22.232Z,0
2016-07-29T03:36:22.297Z,0
2016-07-29T03:37:22.333Z,0
2016-07-29T03:38:22.377Z,0
2016-07-29T03:39:22.418Z,0
2016-07-29T03:40:21.775Z,0
2016-07-29T03:41:21.815Z,0
2016-07-29T03:42:22.569Z,0
2016-07-29T03:43:22.623Z,0
2016-07-29T03:44:21.984Z,0
2016-07-29T03:45:22.712Z,0
2016-07-29T03:46:22.769Z,0
2016-07-29T03:47:23.023Z,0
2016-07-29T03:48:22.816Z,0
2016-07-29T03:49:22.190Z,0
2016-07-29T03:50:22.214Z,0
2016-07-29T03:51:22.951Z,0
2016-07-29T03:52:23.007Z,0
2016-07-29T03:53:22.384Z,0
2016-07-29T03:54:23.170Z,0
2016-07-29T03:55:23.179Z,5
2016-07-29T03:56:23.221Z,5
2016-07-29T03:57:21.853Z,5
2016-07-29T03:58:23.364Z,5
2016-07-29T03:59:22.672Z,5
2016-07-29T04:00:23.429Z,5
2016-07-29T04:01:22.778Z,5
2016-07-29T04:02:22.807Z,5
2016-07-29T04:03:23.546Z,10
2016-07-29T04:04:23.584Z,10
2016-07-29T04:05:22.983Z,10
2016-07-29T04:06:21.599Z,15
2016-07-29T04:07:23.065Z,15
2016-07-29T04:08:23.062Z,15
2016-07-29T04:09:23.142Z,15
2016-07-29T04:10:23.906Z,15
2016-07-29T04:11:23.924Z,15
2016-07-29T04:12:24.163Z,20
2016-07-29T04:13:24.019Z,20
2016-07-29T04:14:24.090Z,25
2016-07-29T04:15:24.136Z,25
2016-07-29T04:16:23.448Z,20
2016-07-29T04:17:23.516Z,25
2016-07-29T04:18:24.221Z,30
2016-07-29T04:19:23.596Z,30
2016-07-29T04:20:22.980Z,30
2016-07-29T04:21:24.433Z,35
2016-07-29T04:22:24.411Z,45
2016-07-29T04:23:24.478Z,40
2016-07-29T04:24:23.848Z,40
2016-07-29T04:25:23.869Z,45
2016-07-29T04:26:24.650Z,50
2016-07-29T04:27:24.669Z,55
2016-07-29T04:28:24.036Z,70
2016-07-29T04:29:24.051Z,95
2016-07-29T04:30:24.824Z,90
2016-07-29T04:31:24.873Z,95
2016-07-29T04:32:24.936Z,95
2016-07-29T04:33:24.235Z,100
2016-07-29T04:34:24.994Z,100
2016-07-29T04:35:24.350Z,115
2016-07-29T04:36:24.365Z,115
2016-07-29T04:37:25.127Z,120
2016-07-29T04:38:25.181Z,100
2016-07-29T04:39:25.257Z,85
2016-07-29T04:40:24.563Z,110
2016-07-29T04:41:25.314Z,135
2016-07-29T04:42:25.379Z,170
2016-07-29T04:43:24.940Z,180
2016-07-29T04:44:24.751Z,215
2016-07-29T04:45:25.472Z,220
2016-07-29T04:46:25.557Z,195
2016-07-29T04:47:24.198Z,210
2016-07-29T04:48:24.973Z,200
2016-07-29T04:49:25.686Z,180
2016-07-29T04:50:25.752Z,215
2016-07-29T04:51:25.794Z,210
2016-07-29T04:52:25.845Z,210
2016-07-29T04:53:25.140Z,185
2016-07-29T04:54:25.963Z,140
2016-07-29T04:55:25.256Z,140
2016-07-29T04:56:25.306Z,150
2016-07-29T04:57:26.058Z,150
2016-07-29T04:58:26.098Z,165
2016-07-29T04:59:26.147Z,205
2016-07-29T05:00:25.524Z,225
2016-07-29T05:01:26.219Z,305
2016-07-29T05:02:26.281Z,235
2016-07-29T05:03:26.361Z,210
2016-07-29T05:04:26.380Z,160
2016-07-29T05:05:25.764Z,180
2016-07-29T05:06:26.461Z,180
2016-07-29T05:07:25.802Z,195
2016-07-29T05:08:25.875Z,180
2016-07-29T05:09:26.632Z,170
2016-07-29T05:10:26.678Z,175
2016-07-29T05:11:26.733Z,205
2016-07-29T05:12:26.044Z,195
2016-07-29T05:13:26.135Z,160
2016-07-29T05:14:26.146Z,155
2016-07-29T05:15:26.163Z,155
2016-07-29T05:16:26.958Z,160
2016-07-29T05:17:27.005Z,175
2016-07-29T05:18:25.851Z,180
2016-07-29T05:19:26.387Z,150
2016-07-29T05:20:26.412Z,140
2016-07-29T05:21:27.179Z,140
2016-07-29T05:22:27.228Z,140
2016-07-29T05:23:26.574Z,170
2016-07-29T05:24:27.326Z,170
2016-07-29T05:25:27.334Z,140
2016-07-29T05:26:27.427Z,155
2016-07-29T05:27:27.480Z,190
2016-07-29T05:28:27.487Z,225
2016-07-29T05:29:27.556Z,240
2016-07-29T05:30:26.896Z,255
2016-07-29T05:31:27.649Z,230
2016-07-29T05:32:27.725Z,285
2016-07-29T05:33:27.441Z,245
2016-07-29T05:34:27.793Z,270
2016-07-29T05:35:27.841Z,275
2016-07-29T05:36:27.896Z,280
2016-07-29T05:37:27.918Z,320
2016-07-29T05:38:27.984Z,240
2016-07-29T05:39:27.295Z,230
2016-07-29T05:40:28.073Z,230
2016-07-29T05:41:26.744Z,195
2016-07-29T05:42:28.202Z,200
2016-07-29T05:43:28.205Z,195
2016-07-29T05:44:28.222Z,205
2016-07-29T05:45:27.602Z,235
2016-07-29T05:46:27.615Z,295
2016-07-29T05:47:28.394Z,295
2016-07-29T05:48:26.842Z,325
2016-07-29T05:49:28.486Z,365
2016-07-29T05:50:28.508Z,420
2016-07-29T05:51:27.178Z,545
2016-07-29T05:52:28.623Z,435
2016-07-29T05:53:27.966Z,445
2016-07-29T05:54:28.731Z,455
2016-07-29T05:55:28.803Z,645
2016-07-29T05:56:28.837Z,550
2016-07-29T05:57:28.150Z,705
2016-07-29T05:58:28.909Z,605
2016-07-29T05:59:28.959Z,660
2016-07-29T06:00:27.604Z,680
2016-07-29T06:01:29.004Z,640
2016-07-29T06:02:28.399Z,705
2016-07-29T06:04:29.210Z,685
2016-07-29T06:05:29.223Z,650
2016-07-29T06:06:27.856Z,565
2016-07-29T06:07:29.304Z,635
2016-07-29T06:08:29.331Z,735
2016-07-29T06:09:28.710Z,725
2016-07-29T06:10:29.474Z,780
2016-07-29T06:11:29.499Z,840
2016-07-29T06:12:29.536Z,695
2016-07-29T06:13:28.902Z,630
2016-07-29T06:14:29.676Z,590
2016-07-29T06:15:29.698Z,595
2016-07-29T06:16:28.309Z,580
2016-07-29T06:17:29.100Z,555
2016-07-29T06:19:29.199Z,545
2016-07-29T06:20:29.912Z,535
2016-07-29T06:21:29.982Z,550
2016-07-29T06:22:30.050Z,500
2016-07-29T06:23:30.078Z,490
2016-07-29T06:24:30.134Z,485
2016-07-29T06:25:30.169Z,455
2016-07-29T06:26:30.165Z,465
2016-07-29T06:27:29.548Z,445
2016-07-29T06:28:30.331Z,430
2016-07-29T06:29:29.649Z,430
2016-07-29T06:30:30.394Z,545
2016-07-29T06:31:29.734Z,665
2016-07-29T06:32:30.445Z,590
2016-07-29T06:33:30.571Z,475
2016-07-29T06:34:29.914Z,445
2016-07-29T06:35:29.204Z,535
2016-07-29T06:36:30.660Z,625
2016-07-29T06:37:30.017Z,510
2016-07-29T06:38:30.754Z,500
2016-07-29T06:39:30.118Z,520
2016-07-29T06:40:30.130Z,540
2016-07-29T06:41:30.229Z,550
2016-07-29T06:42:30.943Z,485
2016-07-29T06:43:31.008Z,480
2016-07-29T06:44:31.023Z,515
2016-07-29T06:45:31.100Z,530
2016-07-29T06:46:31.162Z,555
2016-07-29T06:47:31.172Z,595
2016-07-29T06:48:29.162Z,675
2016-07-29T06:50:31.322Z,600
2016-07-29T06:51:31.412Z,715
2016-07-29T06:52:31.427Z,765
2016-07-29T06:53:30.791Z,700
2016-07-29T06:54:30.787Z,645
2016-07-29T06:55:30.165Z,710
2016-07-29T06:56:31.590Z,765
2016-07-29T06:57:30.951Z,845
2016-07-29T06:58:31.739Z,960
2016-07-29T06:59:31.780Z,960
2016-07-29T07:00:31.807Z,1055
2016-07-29T07:01:31.138Z,800
2016-07-29T07:02:31.159Z,910
2016-07-29T07:04:32.024Z,935
2016-07-29T07:05:32.042Z,1015
2016-07-29T07:06:31.369Z,1285
2016-07-29T07:07:30.741Z,1180
2016-07-29T07:08:32.131Z,1065
2016-07-29T07:09:32.228Z,940
2016-07-29T07:10:31.597Z,790
2016-07-29T07:11:31.583Z,780
2016-07-29T07:12:32.363Z,755
2016-07-29T07:13:32.418Z,845
2016-07-29T07:14:31.786Z,845
2016-07-29T07:15:32.520Z,825
2016-07-29T07:16:32.518Z,925
2016-07-29T07:17:32.592Z,1000
2016-07-29T07:19:32.672Z,1000
2016-07-29T07:20:32.042Z,980
2016-07-29T07:21:32.840Z,1015
2016-07-29T07:22:32.104Z,980
2016-07-29T07:23:32.886Z,1105
2016-07-29T07:24:32.903Z,1005
2016-07-29T07:25:32.269Z,1005
2016-07-29T07:26:32.331Z,980
2016-07-29T07:27:31.665Z,1090
2016-07-29T07:28:31.727Z,985
2016-07-29T07:29:33.147Z,880
2016-07-29T07:30:32.499Z,990
2016-07-29T07:31:33.255Z,865
2016-07-29T07:32:33.332Z,960
2016-07-29T07:33:31.794Z,1080
2016-07-29T07:34:32.695Z,1000
2016-07-29T07:35:33.469Z,1075
2016-07-29T07:36:32.780Z,1125
2016-07-29T07:37:32.826Z,1035
2016-07-29T07:38:32.885Z,890
2016-07-29T07:39:33.640Z,1205
2016-07-29T07:40:32.251Z,1190
2016-07-29T07:41:33.742Z,1190
2016-07-29T07:42:32.337Z,880
2016-07-29T07:43:33.802Z,665
2016-07-29T07:44:33.865Z,660
2016-07-29T07:45:33.941Z,925
2016-07-29T07:46:33.281Z,1000
2016-07-29T07:47:33.274Z,690
2016-07-29T07:49:34.066Z,1240
2016-07-29T07:50:34.153Z,1860
2016-07-29T07:51:34.215Z,920
2016-07-29T07:52:34.248Z,1400
2016-07-29T07:53:34.288Z,1040
2016-07-29T07:54:34.342Z,1610
2016-07-29T07:55:34.362Z,1190
2016-07-29T07:56:34.424Z,1340
2016-07-29T07:57:33.785Z,1105
2016-07-29T07:58:34.535Z,1505
2016-07-29T07:59:33.860Z,1145
2016-07-29T08:00:33.935Z,920
2016-07-29T08:01:34.640Z,1140
2016-07-29T08:02:34.010Z,865
2016-07-29T08:04:34.764Z,1445
2016-07-29T08:05:34.877Z,1815
2016-07-29T08:06:34.932Z,2080
2016-07-29T08:07:34.941Z,2090
2016-07-29T08:08:34.293Z,1855
2016-07-29T08:09:34.335Z,1995
2016-07-29T08:10:34.383Z,1420
2016-07-29T08:11:33.741Z,1190
2016-07-29T08:12:33.810Z,1150
2016-07-29T08:13:34.503Z,1070
2016-07-29T08:14:34.577Z,1320
2016-07-29T08:15:35.315Z,1240
2016-07-29T08:16:35.361Z,800
2016-07-29T08:17:35.391Z,815
2016-07-29T08:19:35.493Z,830
2016-07-29T08:20:35.565Z,1090
2016-07-29T08:21:34.924Z,870
2016-07-29T08:22:35.671Z,625
2016-07-29T08:23:35.722Z,600
2016-07-29T08:24:35.727Z,670
2016-07-29T08:25:35.789Z,610
2016-07-29T08:26:35.878Z,750
2016-07-29T08:27:35.890Z,630
2016-07-29T08:28:35.933Z,500
2016-07-29T08:29:35.267Z,615
2016-07-29T08:30:36.080Z,445
2016-07-29T08:31:35.422Z,565
2016-07-29T08:32:34.718Z,805
2016-07-29T08:34:36.187Z,1140
2016-07-29T08:35:36.289Z,895
2016-07-29T08:36:35.627Z,635
2016-07-29T08:37:35.660Z,720
2016-07-29T08:38:35.694Z,1145
2016-07-29T08:39:36.448Z,685
2016-07-29T08:40:36.495Z,690
2016-07-29T08:41:36.532Z,510
2016-07-29T08:42:36.583Z,595
2016-07-29T08:43:35.930Z,555
2016-07-29T08:44:36.039Z,505
2016-07-29T08:45:36.752Z,510
2016-07-29T08:46:36.783Z,440
2016-07-29T08:47:36.099Z,545
2016-07-29T08:49:36.976Z,1155
2016-07-29T08:50:36.977Z,1180
2016-07-29T08:51:35.639Z,1415
2016-07-29T08:52:37.050Z,1470
2016-07-29T08:53:35.726Z,1300
2016-07-29T08:54:37.135Z,1710
2016-07-29T08:55:37.212Z,2530
2016-07-29T08:56:37.264Z,1840
2016-07-29T08:57:37.331Z,2955
2016-07-29T08:58:37.355Z,1965
2016-07-29T08:59:37.375Z,2480
2016-07-29T09:00:37.446Z,1910
2016-07-29T09:01:36.793Z,1515
2016-07-29T09:02:35.420Z,1545
2016-07-29T09:03:36.877Z,1705
2016-07-29T09:04:36.936Z,1795
2016-07-29T09:05:36.983Z,1685
2016-07-29T09:06:37.065Z,1765
2016-07-29T09:07:37.785Z,1620
2016-07-29T09:08:37.854Z,1875
2016-07-29T09:09:37.899Z,1405
2016-07-29T09:10:37.906Z,1185
2016-07-29T09:11:37.998Z,1090
2016-07-29T09:13:37.388Z,1065
2016-07-29T09:14:37.440Z,925
2016-07-29T09:15:36.076Z,1250
2016-07-29T09:16:38.210Z,1670
2016-07-29T09:17:38.244Z,825
2016-07-29T09:18:38.254Z,820
2016-07-29T09:19:38.365Z,740
2016-07-29T09:20:37.679Z,710
2016-07-29T09:21:38.406Z,1050
2016-07-29T09:22:37.775Z,3665
2016-07-29T09:23:37.149Z,1700
2016-07-29T09:24:37.880Z,4120
2016-07-29T09:25:37.944Z,1705
2016-07-29T09:26:38.693Z,2440
2016-07-29T09:27:38.024Z,2495
2016-07-29T09:28:38.048Z,1690
2016-07-29T09:29:38.145Z,1665
2016-07-29T09:30:38.854Z,1515
2016-07-29T09:31:38.901Z,1590
2016-07-29T09:32:38.244Z,1860
2016-07-29T09:33:38.321Z,4820
